createdAt,value
2022-12-23T00:00:27.131Z,50.41
2022-12-23T00:01:27.267Z,50.02
2022-12-23T00:02:27.241Z,50.20
2022-12-23T00:03:27.210Z,50.08
2022-12-23T00:04:27.122Z,50.78
2022-12-23T00:05:30.178Z,49.75
2022-12-23T00:06:27.065Z,50.20
2022-12-23T00:07:27.050Z,50.08
2022-12-23T00:08:27.023Z,50.29
2022-12-23T00:09:27.035Z,50.47
2022-12-23T00:10:27.008Z,50.23
2022-12-23T00:11:27.009Z,49.58
2022-12-23T00:12:26.979Z,49.72
2022-12-23T00:13:26.980Z,49.55
2022-12-23T00:14:26.970Z,49.64
2022-12-23T00:15:26.969Z,49.61
2022-12-23T00:16:26.958Z,49.81
2022-12-23T00:17:26.921Z,49.78
2022-12-23T00:18:26.888Z,50.14
2022-12-23T00:19:26.889Z,50.29
2022-12-23T00:20:26.932Z,50.47
2022-12-23T00:21:26.860Z,50.50
2022-12-23T00:22:26.825Z,50.50
2022-12-23T00:23:26.843Z,50.38
2022-12-23T00:24:26.815Z,50.90
2022-12-23T00:25:26.817Z,50.93
2022-12-23T00:26:26.833Z,50.75
2022-12-23T00:27:26.795Z,51.03
2022-12-23T00:28:26.803Z,50.93
2022-12-23T00:29:26.779Z,51.31
2022-12-23T00:30:26.748Z,50.63
2022-12-23T00:31:26.782Z,51.21
2022-12-23T00:32:26.698Z,50.84
2022-12-23T00:33:26.691Z,51.28
2022-12-23T00:34:26.694Z,50.75
2022-12-23T00:35:26.693Z,50.53
2022-12-23T00:36:26.687Z,50.41
2022-12-23T00:37:26.700Z,50.53
2022-12-23T00:38:26.636Z,50.63
2022-12-23T00:39:26.615Z,50.17
2022-12-23T00:40:33.263Z,50.35
2022-12-23T00:41:26.589Z,50.08
2022-12-23T00:42:26.592Z,50.14
2022-12-23T00:43:26.565Z,50.66
2022-12-23T00:44:26.596Z,50.35
2022-12-23T00:45:26.610Z,50.81
2022-12-23T00:46:26.585Z,50.93
2022-12-23T00:47:26.518Z,50.66
2022-12-23T00:48:26.508Z,50.87
2022-12-23T00:49:26.492Z,50.63
2022-12-23T00:50:26.485Z,50.26
2022-12-23T00:51:26.470Z,50.56
2022-12-23T00:52:26.472Z,50.53
2022-12-23T00:53:26.427Z,50.41
2022-12-23T00:54:26.424Z,49.72
2022-12-23T00:55:26.428Z,50.20
2022-12-23T00:56:26.409Z,49.52
2022-12-23T00:57:26.397Z,50.11
2022-12-23T00:58:26.367Z,49.87
2022-12-23T00:59:26.382Z,49.46
2022-12-23T01:00:26.361Z,50.29
2022-12-23T01:01:26.486Z,50.23
2022-12-23T01:02:26.476Z,50.05
2022-12-23T01:03:26.395Z,50.08
2022-12-23T01:04:26.303Z,50.35
2022-12-23T01:05:26.293Z,50.32
2022-12-23T01:06:26.261Z,50.44
2022-12-23T01:07:26.269Z,50.60
2022-12-23T01:08:26.250Z,50.41
2022-12-23T01:09:26.247Z,50.29
2022-12-23T01:10:26.210Z,50.60
2022-12-23T01:11:26.215Z,50.56
2022-12-23T01:12:26.212Z,50.60
2022-12-23T01:13:26.190Z,50.32
2022-12-23T01:14:26.219Z,50.60
2022-12-23T01:15:26.149Z,50.69
2022-12-23T01:16:26.175Z,50.90
2022-12-23T01:17:26.172Z,50.93
2022-12-23T01:18:26.112Z,51.03
2022-12-23T01:19:26.091Z,50.78
2022-12-23T01:20:26.095Z,51.18
2022-12-23T01:21:26.092Z,51.00
2022-12-23T01:22:26.061Z,51.12
2022-12-23T01:23:26.035Z,50.93
2022-12-23T01:24:26.043Z,51.03
2022-12-23T01:25:26.048Z,51.00
2022-12-23T01:26:26.028Z,50.78
2022-12-23T01:27:26.002Z,50.93
2022-12-23T01:28:25.995Z,50.78
2022-12-23T01:29:25.984Z,50.53
2022-12-23T01:30:25.955Z,50.50
2022-12-23T01:31:26.028Z,50.23
2022-12-23T01:32:25.971Z,50.32
2022-12-23T01:33:25.906Z,50.32
2022-12-23T01:34:29.688Z,50.05
2022-12-23T01:35:25.910Z,49.61
2022-12-23T01:36:25.905Z,50.08
2022-12-23T01:37:25.861Z,49.64
2022-12-23T01:38:25.852Z,49.31
2022-12-23T01:39:25.875Z,49.43
2022-12-23T01:40:25.832Z,49.31
2022-12-23T01:41:25.833Z,49.67
2022-12-23T01:42:25.824Z,49.64
2022-12-23T01:43:25.796Z,49.08
2022-12-23T01:44:25.794Z,49.05
2022-12-23T01:45:25.771Z,48.63
2022-12-23T01:46:25.815Z,49.00
2022-12-23T01:47:25.758Z,48.71
2022-12-23T01:48:25.736Z,48.83
2022-12-23T01:49:25.705Z,48.94
2022-12-23T01:50:25.699Z,49.00
2022-12-23T01:51:25.679Z,48.88
2022-12-23T01:52:25.664Z,48.71
2022-12-23T01:53:25.689Z,48.65
2022-12-23T01:54:25.683Z,48.74
2022-12-23T01:55:25.617Z,49.00
2022-12-23T01:56:25.638Z,48.63
2022-12-23T01:57:25.598Z,48.46
2022-12-23T01:58:25.613Z,48.29
2022-12-23T01:59:25.600Z,48.46
2022-12-23T02:00:25.576Z,48.54
2022-12-23T02:01:25.696Z,48.88
2022-12-23T02:02:25.647Z,48.60
2022-12-23T02:03:25.628Z,48.60
2022-12-23T02:04:25.519Z,48.54
2022-12-23T02:05:25.534Z,48.85
2022-12-23T02:06:25.492Z,48.54
2022-12-23T02:07:25.493Z,48.65
2022-12-23T02:08:25.454Z,48.77
2022-12-23T02:09:25.445Z,48.26
2022-12-23T02:10:25.435Z,48.65
2022-12-23T02:11:25.429Z,48.40
2022-12-23T02:12:25.433Z,48.46
2022-12-23T02:13:25.384Z,48.60
2022-12-23T02:14:25.400Z,48.32
2022-12-23T02:15:25.382Z,48.51
2022-12-23T02:16:25.379Z,48.24
2022-12-23T02:17:25.346Z,48.24
2022-12-23T02:18:25.358Z,48.12
2022-12-23T02:19:25.302Z,47.26
2022-12-23T02:20:25.298Z,47.77
2022-12-23T02:21:25.288Z,47.44
2022-12-23T02:22:25.281Z,47.26
2022-12-23T02:23:25.271Z,47.31
2022-12-23T02:24:25.249Z,47.12
2022-12-23T02:25:25.250Z,47.04
2022-12-23T02:26:25.243Z,46.96
2022-12-23T02:27:25.232Z,47.15
2022-12-23T02:28:25.223Z,46.89
2022-12-23T02:29:25.204Z,46.57
2022-12-23T02:30:25.161Z,47.10
2022-12-23T02:31:25.250Z,46.94
2022-12-23T02:32:25.191Z,47.15
2022-12-23T02:33:25.148Z,46.99
2022-12-23T02:34:25.122Z,46.89
2022-12-23T02:35:25.132Z,46.78
2022-12-23T02:36:25.107Z,46.42
2022-12-23T02:37:25.078Z,45.81
2022-12-23T02:38:25.096Z,46.26
2022-12-23T02:39:25.053Z,45.81
2022-12-23T02:40:25.071Z,46.26
2022-12-23T02:41:25.046Z,46.16
2022-12-23T02:42:25.038Z,46.21
2022-12-23T02:43:25.027Z,45.56
2022-12-23T02:44:25.021Z,46.21
2022-12-23T02:45:25.006Z,46.21
2022-12-23T02:46:25.071Z,45.66
2022-12-23T02:47:25.004Z,46.26
2022-12-23T02:48:24.934Z,46.68
2022-12-23T02:49:24.927Z,46.42
2022-12-23T02:50:24.905Z,46.16
2022-12-23T02:51:24.895Z,46.83
2022-12-23T02:52:24.890Z,46.68
2022-12-23T02:53:24.865Z,47.04
2022-12-23T02:54:24.870Z,46.78
2022-12-23T02:55:24.868Z,47.04
2022-12-23T02:56:24.859Z,46.96
2022-12-23T02:57:24.808Z,46.99
2022-12-23T02:58:24.827Z,47.26
2022-12-23T02:59:24.789Z,46.99
2022-12-23T03:00:24.790Z,46.78
2022-12-23T03:01:24.912Z,47.15
2022-12-23T03:02:24.923Z,46.99
2022-12-23T03:03:24.804Z,46.99
2022-12-23T03:04:24.742Z,46.99
2022-12-23T03:05:24.711Z,47.10
2022-12-23T03:06:24.708Z,46.99
2022-12-23T03:07:24.711Z,47.23
2022-12-23T03:08:24.677Z,47.10
2022-12-23T03:09:24.668Z,47.17
2022-12-23T03:10:24.656Z,47.10
2022-12-23T03:11:24.648Z,46.83
2022-12-23T03:12:24.634Z,47.02
2022-12-23T03:13:24.663Z,47.44
2022-12-23T03:14:24.594Z,47.26
2022-12-23T03:15:24.651Z,47.50
2022-12-23T03:16:24.703Z,47.26
2022-12-23T03:17:24.582Z,47.33
2022-12-23T03:18:24.536Z,47.42
2022-12-23T03:19:24.539Z,47.04
2022-12-23T03:20:24.529Z,47.33
2022-12-23T03:21:24.518Z,47.39
2022-12-23T03:22:24.574Z,47.42
2022-12-23T03:23:24.518Z,47.55
2022-12-23T03:24:24.509Z,47.50
2022-12-23T03:25:24.501Z,47.77
2022-12-23T03:26:24.459Z,47.90
2022-12-23T03:27:24.427Z,47.55
2022-12-23T03:28:24.412Z,47.52
2022-12-23T03:29:24.444Z,47.71
2022-12-23T03:30:24.399Z,47.36
2022-12-23T03:31:24.549Z,48.10
2022-12-23T03:32:24.379Z,47.82
2022-12-23T03:33:24.354Z,48.04
2022-12-23T03:34:24.339Z,48.24
2022-12-23T03:35:24.372Z,48.37
2022-12-23T03:36:24.325Z,47.93
2022-12-23T03:37:24.335Z,48.29
2022-12-23T03:38:24.298Z,48.21
2022-12-23T03:39:24.283Z,48.49
2022-12-23T03:40:24.295Z,48.40
2022-12-23T03:41:24.294Z,48.40
2022-12-23T03:42:24.271Z,48.49
2022-12-23T03:43:24.210Z,48.54
2022-12-23T03:44:24.192Z,48.63
2022-12-23T03:45:40.995Z,48.74
2022-12-23T03:46:24.275Z,48.65
2022-12-23T03:47:24.176Z,48.74
2022-12-23T03:48:24.170Z,48.46
2022-12-23T03:49:24.196Z,48.65
2022-12-23T03:50:24.161Z,48.57
2022-12-23T03:51:24.141Z,48.83
2022-12-23T03:52:24.121Z,48.68
2022-12-23T03:53:24.094Z,48.68
2022-12-23T03:54:24.076Z,48.74
2022-12-23T03:55:24.062Z,48.88
2022-12-23T03:56:24.057Z,48.94
2022-12-23T03:57:24.046Z,48.91
2022-12-23T03:58:24.070Z,48.94
2022-12-23T03:59:24.059Z,48.94
2022-12-23T04:00:24.021Z,48.77
2022-12-23T04:01:24.009Z,48.60
2022-12-23T04:02:24.144Z,48.68
2022-12-23T04:03:24.036Z,48.74
2022-12-23T04:04:24.004Z,48.63
2022-12-23T04:05:23.919Z,48.77
2022-12-23T04:06:23.933Z,48.88
2022-12-23T04:07:23.905Z,48.83
2022-12-23T04:08:23.912Z,48.71
2022-12-23T04:09:23.861Z,48.88
2022-12-23T04:10:23.870Z,49.03
2022-12-23T04:11:23.846Z,48.85
2022-12-23T04:12:23.855Z,48.85
2022-12-23T04:13:23.857Z,49.31
2022-12-23T04:14:23.842Z,49.14
2022-12-23T04:15:23.851Z,49.40
2022-12-23T04:16:23.862Z,49.31
2022-12-23T04:17:23.777Z,49.23
2022-12-23T04:18:23.802Z,49.34
2022-12-23T04:19:23.735Z,49.43
2022-12-23T04:20:23.751Z,48.88
2022-12-23T04:21:23.729Z,49.43
2022-12-23T04:22:23.708Z,49.28
2022-12-23T04:23:23.702Z,49.11
2022-12-23T04:24:23.716Z,49.17
2022-12-23T04:25:23.651Z,49.31
2022-12-23T04:26:23.664Z,49.14
2022-12-23T04:27:23.668Z,49.34
2022-12-23T04:28:23.645Z,49.28
2022-12-23T04:29:23.624Z,49.08
2022-12-23T04:30:26.672Z,49.20
2022-12-23T04:31:23.646Z,49.14
2022-12-23T04:32:23.590Z,49.26
2022-12-23T04:33:23.578Z,49.26
2022-12-23T04:34:23.582Z,49.11
2022-12-23T04:35:23.590Z,49.28
2022-12-23T04:36:23.564Z,49.05
2022-12-23T04:37:23.515Z,48.85
2022-12-23T04:38:23.492Z,48.85
2022-12-23T04:39:23.494Z,48.63
2022-12-23T04:40:23.479Z,48.63
2022-12-23T04:41:23.456Z,48.71
2022-12-23T04:42:23.463Z,48.71
2022-12-23T04:43:23.437Z,48.83
2022-12-23T04:44:23.461Z,48.46
2022-12-23T04:45:23.399Z,48.54
2022-12-23T04:46:23.525Z,48.54
2022-12-23T04:47:23.395Z,48.35
2022-12-23T04:48:23.416Z,48.46
2022-12-23T04:49:23.360Z,48.37
2022-12-23T04:50:23.349Z,48.46
2022-12-23T04:51:23.335Z,48.24
2022-12-23T04:52:23.330Z,48.24
2022-12-23T04:53:23.299Z,48.15
2022-12-23T04:54:23.304Z,48.21
2022-12-23T04:55:23.319Z,47.99
2022-12-23T04:56:23.268Z,48.12
2022-12-23T04:57:23.255Z,48.07
2022-12-23T04:58:23.245Z,48.10
2022-12-23T04:59:23.241Z,47.90
2022-12-23T05:00:23.242Z,47.82
2022-12-23T05:01:23.228Z,47.88
2022-12-23T05:02:23.295Z,48.15
2022-12-23T05:03:23.272Z,47.82
2022-12-23T05:04:23.183Z,47.71
2022-12-23T05:05:23.149Z,47.69
2022-12-23T05:06:23.167Z,47.52
2022-12-23T05:07:23.141Z,47.47
2022-12-23T05:08:23.125Z,47.28
2022-12-23T05:09:23.084Z,47.31
2022-12-23T05:10:23.080Z,47.15
2022-12-23T05:11:23.082Z,47.47
2022-12-23T05:12:23.070Z,47.26
2022-12-23T05:13:23.047Z,47.28
2022-12-23T05:14:23.024Z,47.15
2022-12-23T05:15:23.037Z,46.52
2022-12-23T05:16:23.116Z,47.15
2022-12-23T05:17:23.004Z,46.94
2022-12-23T05:18:22.999Z,46.37
2022-12-23T05:19:22.961Z,45.81
2022-12-23T05:20:22.957Z,46.32
2022-12-23T05:21:22.950Z,46.21
2022-12-23T05:22:22.940Z,46.06
2022-12-23T05:23:22.912Z,46.06
2022-12-23T05:24:22.918Z,46.06
2022-12-23T05:25:22.884Z,45.86
2022-12-23T05:26:22.868Z,45.71
2022-12-23T05:27:22.867Z,45.91
2022-12-23T05:28:22.851Z,45.76
2022-12-23T05:29:22.839Z,45.96
2022-12-23T05:30:22.811Z,45.91
2022-12-23T05:31:22.936Z,45.76
2022-12-23T05:32:22.827Z,45.76
2022-12-23T05:33:22.843Z,45.81
2022-12-23T05:34:22.785Z,45.41
2022-12-23T05:35:22.755Z,45.46
2022-12-23T05:36:22.739Z,45.27
2022-12-23T05:37:22.732Z,45.56
2022-12-23T05:38:22.747Z,45.22
2022-12-23T05:39:22.698Z,45.31
2022-12-23T05:40:24.870Z,45.36
2022-12-23T05:41:22.683Z,45.51
2022-12-23T05:42:22.669Z,45.31
2022-12-23T05:43:22.686Z,45.17
2022-12-23T05:44:22.634Z,45.12
2022-12-23T05:45:22.627Z,45.27
2022-12-23T05:46:26.531Z,45.51
2022-12-23T05:47:22.614Z,45.56
2022-12-23T05:48:22.608Z,45.31
2022-12-23T05:49:22.594Z,45.36
2022-12-23T05:50:22.561Z,45.51
2022-12-23T05:51:22.566Z,45.31
2022-12-23T05:52:22.549Z,45.36
2022-12-23T05:53:22.516Z,45.61
2022-12-23T05:54:22.548Z,45.56
2022-12-23T05:55:22.483Z,45.51
2022-12-23T05:56:22.474Z,45.61
2022-12-23T05:57:22.473Z,45.56
2022-12-23T05:58:22.458Z,45.41
2022-12-23T05:59:25.373Z,45.51
2022-12-23T06:00:22.443Z,45.96
2022-12-23T06:01:22.425Z,45.96
2022-12-23T06:02:22.621Z,46.11
2022-12-23T06:03:22.645Z,45.71
2022-12-23T06:04:22.491Z,45.86
2022-12-23T06:05:22.388Z,45.81
2022-12-23T06:06:22.351Z,46.06
2022-12-23T06:07:22.366Z,46.11
2022-12-23T06:08:22.339Z,46.26
2022-12-23T06:09:22.324Z,45.96
2022-12-23T06:10:22.302Z,45.96
2022-12-23T06:11:22.300Z,46.16
2022-12-23T06:12:22.294Z,45.86
2022-12-23T06:13:22.258Z,46.06
2022-12-23T06:14:28.391Z,45.81
2022-12-23T06:15:22.264Z,45.81
2022-12-23T06:16:22.297Z,45.86
2022-12-23T06:17:22.233Z,45.81
2022-12-23T06:18:22.204Z,45.96
2022-12-23T06:19:22.202Z,45.91
2022-12-23T06:20:22.181Z,45.61
2022-12-23T06:21:22.187Z,45.61
2022-12-23T06:22:22.158Z,45.76
2022-12-23T06:23:22.157Z,45.81
2022-12-23T06:24:22.112Z,45.76
2022-12-23T06:25:22.099Z,45.46
2022-12-23T06:26:22.094Z,45.71
2022-12-23T06:27:22.084Z,45.41
2022-12-23T06:28:22.089Z,45.46
2022-12-23T06:29:22.072Z,45.41
2022-12-23T06:30:22.040Z,45.51
2022-12-23T06:31:22.142Z,45.51
2022-12-23T06:32:22.038Z,45.51
2022-12-23T06:33:22.022Z,45.41
2022-12-23T06:34:22.012Z,45.36
2022-12-23T06:35:21.995Z,45.56
2022-12-23T06:36:21.981Z,45.46
2022-12-23T06:37:21.998Z,45.61
2022-12-23T06:38:21.948Z,45.56
2022-12-23T06:39:21.942Z,45.61
2022-12-23T06:40:21.919Z,45.66
2022-12-23T06:41:21.916Z,45.76
2022-12-23T06:42:21.906Z,45.66
2022-12-23T06:43:21.894Z,45.76
2022-12-23T06:44:21.851Z,45.66
2022-12-23T06:45:21.855Z,45.86
2022-12-23T06:46:21.904Z,45.76
2022-12-23T06:47:21.860Z,46.01
2022-12-23T06:48:21.823Z,45.86
2022-12-23T06:49:21.799Z,45.86
2022-12-23T06:50:21.785Z,45.66
2022-12-23T06:51:21.763Z,46.11
2022-12-23T06:52:21.758Z,45.86
2022-12-23T06:53:21.750Z,45.96
2022-12-23T06:54:21.736Z,45.96
2022-12-23T06:55:21.723Z,46.01
2022-12-23T06:56:21.711Z,45.96
2022-12-23T06:57:21.708Z,46.26
2022-12-23T06:58:21.686Z,45.96
2022-12-23T06:59:21.683Z,46.01
2022-12-23T07:00:21.705Z,45.96
2022-12-23T07:01:21.697Z,46.01
2022-12-23T07:02:21.730Z,45.96
2022-12-23T07:03:21.688Z,45.96
2022-12-23T07:04:21.610Z,46.06
2022-12-23T07:05:21.604Z,45.96
2022-12-23T07:06:21.611Z,46.16
2022-12-23T07:07:21.582Z,46.21
2022-12-23T07:08:21.562Z,46.26
2022-12-23T07:09:21.580Z,46.47
2022-12-23T07:10:21.565Z,46.21
2022-12-23T07:11:21.496Z,46.32
2022-12-23T07:12:21.554Z,46.68
2022-12-23T07:13:21.508Z,46.21
2022-12-23T07:14:21.477Z,46.47
2022-12-23T07:15:21.470Z,46.16
2022-12-23T07:16:21.552Z,46.37
2022-12-23T07:17:21.434Z,46.73
2022-12-23T07:18:21.401Z,46.78
2022-12-23T07:19:21.419Z,46.68
2022-12-23T07:20:21.415Z,46.52
2022-12-23T07:21:28.566Z,46.42
2022-12-23T07:22:21.377Z,46.78
2022-12-23T07:23:21.369Z,46.73
2022-12-23T07:24:21.357Z,46.78
2022-12-23T07:25:21.364Z,46.57
2022-12-23T07:26:21.328Z,47.20
2022-12-23T07:27:21.309Z,46.99
2022-12-23T07:28:21.307Z,46.83
2022-12-23T07:29:21.304Z,46.78
2022-12-23T07:30:21.304Z,46.89
2022-12-23T07:31:21.380Z,46.73
2022-12-23T07:32:21.409Z,46.99
2022-12-23T07:33:21.271Z,47.17
2022-12-23T07:34:21.259Z,47.07
2022-12-23T07:35:21.219Z,46.89
2022-12-23T07:36:21.247Z,47.02
2022-12-23T07:37:21.197Z,46.99
2022-12-23T07:38:21.145Z,46.94
2022-12-23T07:39:21.160Z,47.15
2022-12-23T07:40:21.113Z,47.20
2022-12-23T07:41:21.117Z,46.83
2022-12-23T07:43:21.129Z,46.99
2022-12-23T07:44:21.057Z,47.15
2022-12-23T07:45:21.057Z,47.04
2022-12-23T07:46:21.138Z,46.94
2022-12-23T07:47:21.037Z,46.94
2022-12-23T07:48:21.020Z,46.68
2022-12-23T07:49:21.021Z,46.63
2022-12-23T07:50:21.022Z,46.78
2022-12-23T07:51:20.966Z,46.57
2022-12-23T07:52:20.979Z,46.26
2022-12-23T07:53:20.988Z,46.26
2022-12-23T07:54:20.955Z,46.37
2022-12-23T07:55:20.955Z,46.01
2022-12-23T07:56:20.901Z,45.81
2022-12-23T07:57:20.922Z,45.86
2022-12-23T07:58:20.931Z,45.91
2022-12-23T07:59:20.881Z,45.76
2022-12-23T08:00:20.897Z,45.66
2022-12-23T08:01:20.908Z,45.46
2022-12-23T08:02:20.983Z,45.66
2022-12-23T08:03:21.001Z,45.27
2022-12-23T08:04:20.874Z,45.17
2022-12-23T08:05:20.866Z,45.02
2022-12-23T08:06:20.779Z,45.12
2022-12-23T08:07:20.805Z,44.83
2022-12-23T08:08:20.754Z,45.07
2022-12-23T08:09:20.773Z,45.07
2022-12-23T08:10:20.758Z,45.02
2022-12-23T08:11:20.721Z,44.97
2022-12-23T08:12:20.710Z,45.07
2022-12-23T08:13:20.695Z,44.83
2022-12-23T08:14:20.677Z,45.02
2022-12-23T08:15:20.676Z,44.69
2022-12-23T08:16:20.715Z,44.74
2022-12-23T08:17:20.715Z,44.88
2022-12-23T08:18:20.650Z,44.74
2022-12-23T08:19:20.639Z,44.83
2022-12-23T08:20:20.605Z,44.69
2022-12-23T08:21:20.585Z,44.69
2022-12-23T08:22:20.584Z,44.69
2022-12-23T08:23:24.725Z,44.69
2022-12-23T08:24:20.554Z,44.74
2022-12-23T08:25:20.552Z,44.59
2022-12-23T08:26:20.537Z,44.74
2022-12-23T08:27:20.545Z,44.54
2022-12-23T08:28:20.490Z,44.74
2022-12-23T08:29:20.476Z,44.69
2022-12-23T08:30:20.540Z,44.59
2022-12-23T08:31:20.523Z,44.36
2022-12-23T08:32:20.431Z,44.78
2022-12-23T08:33:20.429Z,44.69
2022-12-23T08:34:20.415Z,44.59
2022-12-23T08:35:20.406Z,44.59
2022-12-23T08:36:23.081Z,44.64
2022-12-23T08:37:20.405Z,44.83
2022-12-23T08:38:20.337Z,44.26
2022-12-23T08:39:20.363Z,44.59
2022-12-23T08:40:20.342Z,44.59
2022-12-23T08:41:20.324Z,44.54
2022-12-23T08:42:20.327Z,44.22
2022-12-23T08:43:20.321Z,44.45
2022-12-23T08:44:20.286Z,44.45
2022-12-23T08:45:20.276Z,44.69
2022-12-23T08:46:20.340Z,44.45
2022-12-23T08:47:20.254Z,44.54
2022-12-23T08:48:20.235Z,44.54
2022-12-23T08:49:20.232Z,44.45
2022-12-23T08:50:20.210Z,44.17
2022-12-23T08:51:20.186Z,44.45
2022-12-23T08:52:20.160Z,44.26
2022-12-23T08:53:20.217Z,44.50
2022-12-23T08:54:20.145Z,44.64
2022-12-23T08:55:20.155Z,44.74
2022-12-23T08:56:20.125Z,44.83
2022-12-23T08:57:20.119Z,44.78
2022-12-23T08:58:20.079Z,44.78
2022-12-23T08:59:20.211Z,44.83
2022-12-23T09:00:20.054Z,44.83
2022-12-23T09:01:20.129Z,44.83
2022-12-23T09:02:20.190Z,44.78
2022-12-23T09:03:20.184Z,44.59
2022-12-23T09:04:20.031Z,44.40
2022-12-23T09:05:20.028Z,44.64
2022-12-23T09:06:26.505Z,44.93
2022-12-23T09:07:19.985Z,44.93
2022-12-23T09:08:19.945Z,44.88
2022-12-23T09:09:20.140Z,44.88
2022-12-23T09:10:19.981Z,45.02
2022-12-23T09:11:19.953Z,44.88
2022-12-23T09:12:19.960Z,45.02
2022-12-23T09:13:27.801Z,44.83
2022-12-23T09:14:19.900Z,44.83
2022-12-23T09:15:19.926Z,44.74
2022-12-23T09:16:19.924Z,44.88
2022-12-23T09:17:19.882Z,44.83
2022-12-23T09:18:19.858Z,44.97
2022-12-23T09:19:19.912Z,44.93
2022-12-23T09:20:19.866Z,44.78
2022-12-23T09:21:19.881Z,44.88
2022-12-23T09:22:19.810Z,44.88
2022-12-23T09:23:19.756Z,44.88
2022-12-23T09:24:19.762Z,44.78
2022-12-23T09:25:19.757Z,44.69
2022-12-23T09:26:19.754Z,44.83
2022-12-23T09:27:19.743Z,44.69
2022-12-23T09:28:19.687Z,44.59
2022-12-23T09:29:19.732Z,44.54
2022-12-23T09:30:19.672Z,44.54
2022-12-23T09:31:21.654Z,44.50
2022-12-23T09:32:19.648Z,44.50
2022-12-23T09:33:19.652Z,44.45
2022-12-23T09:34:19.647Z,44.36
2022-12-23T09:35:19.636Z,44.50
2022-12-23T09:36:19.594Z,44.54
2022-12-23T09:37:19.585Z,44.50
2022-12-23T09:38:19.556Z,44.36
2022-12-23T09:39:19.561Z,44.22
2022-12-23T09:40:19.534Z,44.31
2022-12-23T09:41:19.524Z,44.17
2022-12-23T09:42:19.535Z,44.12
2022-12-23T09:43:19.519Z,44.40
2022-12-23T09:44:19.489Z,44.31
2022-12-23T09:45:19.472Z,44.17
2022-12-23T09:46:19.459Z,44.17
2022-12-23T09:47:19.474Z,44.03
2022-12-23T09:48:19.425Z,44.12
2022-12-23T09:49:20.020Z,44.22
2022-12-23T09:50:19.403Z,44.08
2022-12-23T09:51:19.412Z,44.31
2022-12-23T09:52:19.390Z,44.36
2022-12-23T09:53:19.373Z,44.22
2022-12-23T09:54:19.370Z,43.98
2022-12-23T09:55:19.346Z,44.17
2022-12-23T09:56:19.373Z,44.26
2022-12-23T09:57:19.341Z,44.17
2022-12-23T09:58:19.306Z,43.98
2022-12-23T09:59:19.293Z,44.22
2022-12-23T10:00:19.308Z,44.12
2022-12-23T10:01:19.375Z,44.17
2022-12-23T10:02:19.464Z,44.26
2022-12-23T10:03:19.416Z,44.22
2022-12-23T10:04:19.314Z,44.31
2022-12-23T10:05:19.228Z,44.50
2022-12-23T10:06:19.212Z,44.17
2022-12-23T10:07:19.196Z,44.22
2022-12-23T10:08:19.196Z,44.36
2022-12-23T10:09:19.183Z,43.98
2022-12-23T10:10:19.215Z,44.08
2022-12-23T10:11:19.117Z,44.36
2022-12-23T10:12:25.272Z,44.22
2022-12-23T10:13:19.098Z,43.98
2022-12-23T10:14:19.106Z,44.08
2022-12-23T10:15:19.089Z,43.85
2022-12-23T10:16:19.174Z,43.89
2022-12-23T10:17:19.038Z,43.89
2022-12-23T10:18:19.049Z,43.98
2022-12-23T10:19:19.010Z,43.89
2022-12-23T10:20:19.041Z,43.94
2022-12-23T10:21:18.993Z,43.80
2022-12-23T10:22:18.989Z,43.89
2022-12-23T10:23:18.971Z,43.71
2022-12-23T10:24:18.974Z,43.94
2022-12-23T10:25:18.939Z,43.94
2022-12-23T10:26:18.914Z,43.98
2022-12-23T10:27:18.933Z,43.75
2022-12-23T10:28:18.910Z,44.03
2022-12-23T10:29:19.808Z,43.89
2022-12-23T10:30:57.271Z,43.94
2022-12-23T10:31:39.806Z,43.98
2022-12-23T10:32:18.943Z,43.94
2022-12-23T10:33:18.817Z,43.75
2022-12-23T10:34:18.837Z,43.85
2022-12-23T10:35:18.798Z,43.94
2022-12-23T10:36:18.874Z,43.71
2022-12-23T10:37:18.796Z,43.80
2022-12-23T10:38:18.778Z,43.48
2022-12-23T10:39:18.743Z,43.44
2022-12-23T10:40:18.745Z,43.48
2022-12-23T10:41:18.716Z,43.44
2022-12-23T10:42:18.728Z,43.57
2022-12-23T10:43:18.695Z,43.35
2022-12-23T10:44:18.686Z,43.48
2022-12-23T10:45:18.674Z,43.17
2022-12-23T10:46:18.690Z,43.26
2022-12-23T10:47:18.662Z,43.39
2022-12-23T10:48:18.656Z,43.35
2022-12-23T10:49:18.619Z,43.35
2022-12-23T10:50:18.607Z,43.57
2022-12-23T10:51:18.669Z,43.30
2022-12-23T10:52:18.589Z,43.48
2022-12-23T10:53:18.580Z,43.26
2022-12-23T10:54:18.561Z,43.12
2022-12-23T10:55:18.539Z,43.17
2022-12-23T10:56:18.534Z,43.17
2022-12-23T10:57:18.514Z,43.30
2022-12-23T10:58:18.541Z,43.21
2022-12-23T10:59:18.514Z,43.03
2022-12-23T11:00:18.476Z,42.90
2022-12-23T11:01:26.214Z,42.73
2022-12-23T11:02:18.629Z,42.82
2022-12-23T11:03:18.623Z,42.90
2022-12-23T11:04:18.443Z,42.73
2022-12-23T11:05:18.416Z,42.56
2022-12-23T11:06:18.432Z,42.56
2022-12-23T11:07:43.497Z,42.60
2022-12-23T11:08:18.416Z,42.56
2022-12-23T11:09:18.380Z,42.47
2022-12-23T11:10:18.340Z,42.73
2022-12-23T11:11:18.318Z,42.86
2022-12-23T11:12:18.341Z,42.95
2022-12-23T11:13:18.311Z,43.17
2022-12-23T11:14:18.286Z,42.77
2022-12-23T11:15:18.281Z,43.03
2022-12-23T11:16:18.304Z,43.17
2022-12-23T11:17:18.282Z,43.03
2022-12-23T11:18:18.260Z,43.35
2022-12-23T11:19:18.228Z,43.30
2022-12-23T11:20:18.249Z,43.17
2022-12-23T11:21:18.212Z,43.44
2022-12-23T11:22:18.212Z,43.21
2022-12-23T11:23:18.178Z,43.44
2022-12-23T11:24:18.176Z,43.48
2022-12-23T11:25:18.170Z,43.35
2022-12-23T11:26:18.147Z,43.44
2022-12-23T11:27:18.165Z,43.35
2022-12-23T11:28:18.127Z,43.48
2022-12-23T11:29:18.101Z,43.17
2022-12-23T11:30:18.072Z,43.12
2022-12-23T11:31:18.111Z,43.21
2022-12-23T11:32:18.050Z,43.35
2022-12-23T11:33:18.050Z,43.30
2022-12-23T11:34:18.054Z,43.71
2022-12-23T11:35:18.071Z,43.66
2022-12-23T11:36:18.029Z,43.75
2022-12-23T11:37:17.988Z,43.98
2022-12-23T11:38:18.068Z,43.94
2022-12-23T11:39:17.960Z,44.22
2022-12-23T11:40:17.973Z,44.12
2022-12-23T11:41:17.922Z,44.17
2022-12-23T11:42:17.933Z,44.59
2022-12-23T11:43:17.921Z,44.36
2022-12-23T11:44:17.912Z,44.69
2022-12-23T11:45:17.908Z,44.26
2022-12-23T11:46:17.932Z,44.31
2022-12-23T11:47:17.956Z,44.36
2022-12-23T11:48:17.857Z,44.54
2022-12-23T11:49:17.840Z,44.74
2022-12-23T11:50:17.815Z,45.12
2022-12-23T11:51:17.833Z,45.02
2022-12-23T11:52:17.829Z,45.27
2022-12-23T11:53:17.779Z,45.31
2022-12-23T11:54:17.819Z,45.27
2022-12-23T11:55:17.799Z,45.51
2022-12-23T11:56:17.857Z,45.61
2022-12-23T11:57:17.839Z,45.86
2022-12-23T11:58:17.838Z,45.76
2022-12-23T11:59:17.719Z,46.26
2022-12-23T12:00:17.779Z,46.11
2022-12-23T12:01:17.677Z,46.26
2022-12-23T12:02:17.741Z,46.37
2022-12-23T12:03:17.721Z,46.52
2022-12-23T12:04:17.652Z,46.73
2022-12-23T12:05:17.661Z,47.15
2022-12-23T12:06:17.615Z,47.20
2022-12-23T12:07:17.607Z,47.36
2022-12-23T12:08:17.620Z,47.69
2022-12-23T12:09:17.570Z,47.47
2022-12-23T12:10:17.585Z,47.79
2022-12-23T12:11:17.571Z,47.93
2022-12-23T12:12:17.553Z,48.12
2022-12-23T12:13:17.543Z,48.37
2022-12-23T12:14:17.537Z,48.35
2022-12-23T12:15:17.516Z,48.40
2022-12-23T12:16:17.583Z,48.32
2022-12-23T12:17:17.515Z,48.51
2022-12-23T12:18:17.462Z,48.43
2022-12-23T12:19:17.460Z,48.54
2022-12-23T12:20:17.414Z,48.26
2022-12-23T12:21:17.417Z,48.46
2022-12-23T12:22:17.431Z,48.65
2022-12-23T12:23:17.398Z,48.29
2022-12-23T12:24:19.177Z,48.57
2022-12-23T12:25:17.398Z,48.04
2022-12-23T12:26:17.357Z,47.93
2022-12-23T12:27:17.335Z,47.79
2022-12-23T12:28:17.323Z,47.82
2022-12-23T12:29:17.305Z,47.71
2022-12-23T12:30:17.307Z,47.77
2022-12-23T12:31:17.391Z,47.52
2022-12-23T12:32:17.263Z,47.12
2022-12-23T12:33:17.265Z,47.28
2022-12-23T12:34:17.284Z,47.20
2022-12-23T12:35:17.224Z,47.10
2022-12-23T12:36:17.296Z,46.99
2022-12-23T12:37:17.194Z,46.99
2022-12-23T12:38:17.213Z,47.10
2022-12-23T12:39:17.196Z,47.04
2022-12-23T12:40:17.186Z,47.07
2022-12-23T12:41:17.173Z,47.10
2022-12-23T12:42:17.165Z,47.10
2022-12-23T12:43:17.113Z,47.20
2022-12-23T12:44:17.107Z,47.12
2022-12-23T12:45:17.093Z,47.26
2022-12-23T12:46:17.234Z,46.89
2022-12-23T12:47:44.716Z,47.04
2022-12-23T12:48:19.011Z,46.73
2022-12-23T12:49:17.087Z,47.04
2022-12-23T12:50:17.032Z,47.02
2022-12-23T12:51:17.075Z,47.02
2022-12-23T12:52:17.044Z,47.07
2022-12-23T12:53:17.032Z,46.89